Time;durP1;ratioP1;P1;durP2;ratioP2;P2;SDS_P1;SDS_P2;PMS_P1;PMS_P2;Temp;Humidity;BMP_temperature;BMP_pressure;BME280_temperature;BME280_humidity;BME280_pressure;Samples;Min_cycle;Max_cycle;Signal;HPM_P1;HPM_P2
2020/12/15 00:01:06;;;;;;;1.33;0.10;;;;;;;8.39;100.00;100478.00;4962861;28;20516;-75
2020/12/15 00:03:31;;;;;;;1.40;0.20;;;;;;;8.44;100.00;100483.91;4956622;28;20492;-76
2020/12/15 00:05:57;;;;;;;1.90;0.27;;;;;;;8.44;100.00;100480.44;4956256;28;20437;-75
2020/12/15 00:08:22;;;;;;;1.47;0.10;;;;;;;8.49;100.00;100489.03;4976092;28;20317;-76
2020/12/15 00:10:48;;;;;;;1.63;0.10;;;;;;;8.57;100.00;100487.31;4956304;28;20333;-76
2020/12/15 00:13:13;;;;;;;1.60;0.20;;;;;;;8.70;100.00;100488.78;4973052;28;20209;-76
2020/12/15 00:15:39;;;;;;;1.50;0.27;;;;;;;8.71;100.00;100487.66;4972247;28;20204;-75
2020/12/15 00:18:05;;;;;;;1.10;0.10;;;;;;;8.50;100.00;100482.53;4958113;28;20174;-75
2020/12/15 00:20:31;;;;;;;1.50;0.20;;;;;;;8.48;100.00;100474.03;4967514;28;20194;-76
2020/12/15 00:22:58;;;;;;;2.87;0.40;;;;;;;8.50;100.00;100469.09;4974935;28;20213;-75
2020/12/15 00:25:23;;;;;;;1.50;0.20;;;;;;;8.61;100.00;100478.22;4972803;28;20867;-74
2020/12/15 00:27:49;;;;;;;2.20;0.37;;;;;;;8.51;100.00;100473.38;4955878;28;20507;-76
2020/12/15 00:30:14;;;;;;;1.73;0.40;;;;;;;8.35;100.00;100459.13;4971185;28;20669;-74
2020/12/15 00:32:40;;;;;;;1.70;0.30;;;;;;;8.56;100.00;100461.56;4968888;28;20698;-75
2020/12/15 00:35:06;;;;;;;1.40;0.20;;;;;;;8.62;100.00;100460.97;4959968;28;20719;-75
2020/12/15 00:37:37;;;;;;;1.63;0.20;;;;;;;8.51;100.00;100465.31;4964921;28;20190;-75
2020/12/15 00:40:03;;;;;;;1.70;0.20;;;;;;;8.58;100.00;100462.78;4971435;28;20453;-75
2020/12/15 00:42:29;;;;;;;2.70;0.20;;;;;;;8.56;100.00;100465.03;4963246;28;20638;-75
2020/12/15 00:44:54;;;;;;;1.20;0.10;;;;;;;8.48;100.00;100457.94;4970356;28;20529;-75
2020/12/15 00:47:20;;;;;;;1.70;0.30;;;;;;;8.53;100.00;100467.66;4974776;28;20247;-75
2020/12/15 00:49:46;;;;;;;1.40;0.20;;;;;;;8.74;100.00;100460.91;4954397;28;20171;-75
2020/12/15 00:52:12;;;;;;;2.50;0.57;;;;;;;8.75;100.00;100465.13;4957130;28;20187;-75
2020/12/15 00:54:37;;;;;;;2.00;0.40;;;;;;;8.84;100.00;100452.34;4958813;28;20524;-75
2020/12/15 00:57:03;;;;;;;1.50;0.23;;;;;;;8.78;100.00;100461.78;4955393;28;20178;-75
2020/12/15 00:59:29;;;;;;;1.50;0.20;;;;;;;8.85;100.00;100442.34;4975237;28;20570;-76
2020/12/15 01:01:58;;;;;;;2.33;0.40;;;;;;;8.93;100.00;100431.44;4973691;28;20268;-75
2020/12/15 01:04:24;;;;;;;1.60;0.27;;;;;;;8.87;100.00;100438.19;4971786;28;20504;-75
2020/12/15 01:06:50;;;;;;;1.60;0.20;;;;;;;8.92;100.00;100429.88;4953971;28;20549;-75
2020/12/15 01:09:19;;;;;;;1.60;0.30;;;;;;;8.76;100.00;100447.13;4954674;28;20192;-75
2020/12/15 01:11:45;;;;;;;1.30;0.20;;;;;;;8.79;100.00;100441.84;4969056;28;20445;-76
2020/12/15 01:14:16;;;;;;;1.80;0.30;;;;;;;8.58;100.00;100437.84;4950346;28;20206;-75
2020/12/15 01:16:46;;;;;;;1.30;0.20;;;;;;;8.74;100.00;100428.69;4943992;28;20449;-75
2020/12/15 01:19:12;;;;;;;1.70;0.20;;;;;;;8.83;100.00;100423.91;4936421;28;20837;-76
2020/12/15 01:21:38;;;;;;;1.33;0.20;;;;;;;8.79;100.00;100415.00;4949539;28;20190;-75
2020/12/15 01:24:04;;;;;;;1.20;0.10;;;;;;;8.74;100.00;100412.59;4972920;28;20469;-75
2020/12/15 01:26:38;;;;;;;2.27;0.50;;;;;;;8.91;100.00;100400.69;4948405;29;20252;-76
2020/12/15 01:29:04;;;;;;;1.30;0.20;;;;;;;9.00;100.00;100390.53;4951282;28;20985;-76
2020/12/15 01:31:30;;;;;;;1.30;0.10;;;;;;;9.02;100.00;100382.88;4953075;28;20338;-76
2020/12/15 01:34:06;;;;;;;1.30;0.20;;;;;;;9.01;100.00;100387.50;4955770;28;20205;-76
2020/12/15 01:36:42;;;;;;;1.40;0.20;;;;;;;8.94;100.00;100392.69;4952397;28;20442;-75
2020/12/15 01:39:09;;;;;;;1.40;0.20;;;;;;;9.00;100.00;100391.31;4950464;28;20468;-75
2020/12/15 01:41:50;;;;;;;1.50;0.30;;;;;;;9.04;100.00;100392.16;4948530;28;20899;-76
2020/12/15 01:44:16;;;;;;;1.40;0.20;;;;;;;8.92;100.00;100384.22;4954205;28;20465;-75
2020/12/15 01:46:44;;;;;;;1.50;0.20;;;;;;;8.79;100.00;100384.66;4955821;28;20433;-75
2020/12/15 01:49:10;;;;;;;1.50;0.20;;;;;;;8.73;100.00;100378.78;4935927;28;20486;-74
2020/12/15 01:51:48;;;;;;;2.40;0.47;;;;;;;8.85;100.00;100367.97;4980618;28;20533;-75
2020/12/15 01:54:17;;;;;;;2.70;0.40;;;;;;;8.94;100.00;100357.03;4948279;28;20473;-76
2020/12/15 01:56:47;;;;;;;1.70;0.20;;;;;;;8.98;100.00;100342.53;4972474;28;20422;-76
2020/12/15 01:59:19;;;;;;;1.30;0.17;;;;;;;8.97;100.00;100338.31;4955120;28;20473;-75
2020/12/15 02:01:48;;;;;;;1.47;0.20;;;;;;;8.94;100.00;100355.09;4941759;28;20468;-76
2020/12/15 02:04:25;;;;;;;1.33;0.20;;;;;;;8.94;100.00;100349.72;4953113;28;20460;-75
2020/12/15 02:07:01;;;;;;;2.00;0.30;;;;;;;8.95;100.00;100343.25;4954314;28;20601;-75
2020/12/15 02:09:28;;;;;;;1.43;0.20;;;;;;;8.93;100.00;100361.63;4935015;28;20451;-75
2020/12/15 02:12:08;;;;;;;1.47;0.20;;;;;;;8.84;100.00;100361.03;4942241;28;20441;-75
2020/12/15 02:14:38;;;;;;;1.63;0.23;;;;;;;8.82;100.00;100355.25;4950669;28;20489;-76
2020/12/15 02:17:05;;;;;;;1.60;0.23;;;;;;;8.86;100.00;100340.00;4941177;28;20492;-76
2020/12/15 02:20:11;;;;;;;1.40;0.23;;;;;;;8.76;100.00;100339.75;4960170;28;20434;-76
2020/12/15 02:23:03;;;;;;;1.30;0.20;;;;;;;8.60;100.00;100326.34;4955556;28;20465;-76
2020/12/15 02:25:32;;;;;;;1.50;0.40;;;;;;;8.73;100.00;100327.78;4948837;28;21024;-75
2020/12/15 02:27:58;;;;;;;1.33;0.20;;;;;;;8.47;100.00;100341.00;4952043;28;20442;-75
2020/12/15 02:30:24;;;;;;;1.60;0.30;;;;;;;8.55;100.00;100337.38;4957629;28;20214;-75
2020/12/15 02:32:53;;;;;;;1.40;0.20;;;;;;;8.65;100.00;100336.06;4950825;28;20429;-75
2020/12/15 02:35:22;;;;;;;5.10;0.30;;;;;;;8.68;100.00;100340.72;4951228;28;20450;-76
2020/12/15 02:37:47;;;;;;;1.30;0.20;;;;;;;8.70;100.00;100330.41;4971623;28;20497;-75
2020/12/15 02:40:18;;;;;;;1.60;0.23;;;;;;;8.59;100.00;100346.28;4952716;28;20186;-76
2020/12/15 02:43:12;;;;;;;1.60;0.30;;;;;;;8.69;100.00;100329.63;4942541;28;21348;-76
2020/12/15 02:45:44;;;;;;;1.30;0.10;;;;;;;8.78;100.00;100326.75;4970375;28;20528;-74
2020/12/15 02:48:14;;;;;;;1.63;0.33;;;;;;;8.83;100.00;100300.41;4951773;28;20987;-76
2020/12/15 02:50:40;;;;;;;1.80;0.40;;;;;;;8.80;100.00;100316.44;4953860;28;20434;-75
2020/12/15 02:53:26;;;;;;;1.40;0.20;;;;;;;8.77;100.00;100317.91;4946087;28;20634;-75
2020/12/15 02:55:57;;;;;;;1.50;0.30;;;;;;;8.78;100.00;100306.06;4942234;28;20446;-75
2020/12/15 02:58:35;;;;;;;1.30;0.20;;;;;;;8.84;100.00;100298.50;4953463;28;20444;-75
2020/12/15 03:01:02;;;;;;;1.60;0.30;;;;;;;8.86;100.00;100299.72;4950602;28;20445;-76
2020/12/15 03:03:28;;;;;;;1.97;0.23;;;;;;;8.85;100.00;100300.84;4970073;28;20863;-76
2020/12/15 03:06:04;;;;;;;2.10;0.40;;;;;;;8.85;100.00;100303.53;4950497;28;20441;-75
2020/12/15 03:08:30;;;;;;;1.20;0.13;;;;;;;8.79;100.00;100304.91;4954281;28;20453;-75
2020/12/15 03:10:58;;;;;;;1.87;0.30;;;;;;;8.70;100.00;100314.31;4950600;28;20453;-77
2020/12/15 03:13:24;;;;;;;1.50;0.20;;;;;;;8.82;100.00;100314.19;4949761;28;20456;-75
2020/12/15 03:15:49;;;;;;;1.40;0.20;;;;;;;8.79;100.00;100325.63;4944661;28;20895;-75
2020/12/15 03:18:20;;;;;;;1.63;0.23;;;;;;;8.80;100.00;100330.66;4950140;28;20197;-76
2020/12/15 03:20:49;;;;;;;1.40;0.20;;;;;;;8.76;100.00;100327.09;4952685;28;20450;-74
2020/12/15 03:23:18;;;;;;;1.50;0.30;;;;;;;8.80;100.00;100337.91;4952936;28;20453;-75
2020/12/15 03:25:43;;;;;;;1.43;0.20;;;;;;;8.82;100.00;100347.19;4961096;28;20810;-76
2020/12/15 03:28:09;;;;;;;1.73;0.27;;;;;;;8.83;100.00;100335.31;4951783;28;20453;-76
2020/12/15 03:30:39;;;;;;;1.50;0.30;;;;;;;8.86;100.00;100337.31;4953486;28;20541;-76
2020/12/15 03:33:05;;;;;;;1.40;0.20;;;;;;;8.85;100.00;100343.00;4951449;28;20446;-76
2020/12/15 03:35:32;;;;;;;1.73;0.20;;;;;;;8.85;100.00;100341.09;4934909;28;20573;-76
2020/12/15 03:38:01;;;;;;;1.50;0.20;;;;;;;8.86;100.00;100329.25;4961364;28;20441;-76
2020/12/15 03:40:31;;;;;;;1.40;0.23;;;;;;;8.89;100.00;100336.59;4955514;28;20452;-76
2020/12/15 03:43:15;;;;;;;1.50;0.17;;;;;;;8.84;100.00;100339.56;4968677;28;20484;-74
2020/12/15 03:45:55;;;;;;;1.60;0.30;;;;;;;8.78;100.00;100349.03;4954077;28;20916;-76
2020/12/15 03:48:40;;;;;;;1.40;0.20;;;;;;;8.77;100.00;100343.97;4969194;28;20542;-76
2020/12/15 03:51:08;;;;;;;1.60;0.30;;;;;;;8.72;100.00;100346.94;4913918;29;20362;-76
2020/12/15 03:53:52;;;;;;;2.50;0.17;;;;;;;8.75;100.00;100341.66;4927183;29;20494;-76
2020/12/15 03:56:19;;;;;;;1.53;0.20;;;;;;;8.83;100.00;100347.94;4930814;29;20490;-75
2020/12/15 03:58:45;;;;;;;1.13;0.10;;;;;;;8.70;100.00;100339.25;4913508;29;20478;-76
2020/12/15 04:01:12;;;;;;;1.73;0.20;;;;;;;8.81;100.00;100337.56;4914595;29;20194;-76
2020/12/15 04:03:37;;;;;;;1.50;0.20;;;;;;;8.88;100.00;100328.91;4912467;29;20476;-76
2020/12/15 04:06:08;;;;;;;1.20;0.10;;;;;;;8.81;100.00;100334.09;4913658;29;20851;-76
2020/12/15 04:08:41;;;;;;;1.60;0.27;;;;;;;8.82;100.00;100332.97;4925529;29;20483;-76
2020/12/15 04:11:08;;;;;;;2.37;0.57;;;;;;;8.84;100.00;100328.03;4913374;29;20450;-76
2020/12/15 04:13:41;;;;;;;1.50;0.20;;;;;;;8.90;100.00;100329.31;4893773;29;20495;-76
2020/12/15 04:16:09;;;;;;;1.90;0.43;;;;;;;8.67;100.00;100347.22;4913725;29;20518;-76
2020/12/15 04:18:41;;;;;;;1.70;0.37;;;;;;;8.52;100.00;100342.63;4911865;29;20536;-75
2020/12/15 04:21:11;;;;;;;1.93;0.30;;;;;;;8.56;100.00;100336.22;4914556;29;20450;-76
2020/12/15 04:23:39;;;;;;;2.30;0.40;;;;;;;8.49;100.00;100330.72;4909979;28;20470;-76
2020/12/15 04:26:07;;;;;;;1.70;0.20;;;;;;;8.45;100.00;100327.16;4903557;29;20447;-76
2020/12/15 04:28:43;;;;;;;1.40;0.10;;;;;;;8.46;100.00;100331.38;4935179;28;20442;-76
2020/12/15 04:31:09;;;;;;;1.50;0.20;;;;;;;8.59;100.00;100322.13;4953372;28;20441;-75
2020/12/15 04:33:34;;;;;;;1.37;0.20;;;;;;;8.65;100.00;100333.38;4955603;28;20433;-75
2020/12/15 04:36:00;;;;;;;1.57;0.30;;;;;;;8.56;100.00;100328.19;4952794;28;20181;-76
2020/12/15 04:38:27;;;;;;;2.57;0.40;;;;;;;8.51;100.00;100333.03;4958428;28;20324;-76
2020/12/15 04:40:58;;;;;;;1.50;0.20;;;;;;;8.33;100.00;100337.97;4954525;28;20468;-76
2020/12/15 04:43:33;;;;;;;3.30;0.70;;;;;;;8.42;100.00;100340.50;4950187;28;20468;-76
2020/12/15 04:46:02;;;;;;;2.03;0.30;;;;;;;8.27;100.00;100342.06;4954577;28;20821;-76
2020/12/15 04:48:31;;;;;;;1.40;0.20;;;;;;;8.25;100.00;100340.84;4970496;28;20476;-76
2020/12/15 04:51:15;;;;;;;1.37;0.20;;;;;;;8.20;100.00;100336.50;4951093;28;20441;-76
2020/12/15 04:53:53;;;;;;;1.80;0.40;;;;;;;8.21;100.00;100344.19;4956730;28;20475;-75
2020/12/15 04:56:42;;;;;;;1.60;0.37;;;;;;;8.22;100.00;100334.25;4966038;28;20475;-76
2020/12/15 04:59:24;;;;;;;1.77;0.40;;;;;;;8.20;100.00;100331.13;4954323;28;20937;-76
2020/12/15 05:01:55;;;;;;;4.10;0.60;;;;;;;8.20;100.00;100337.28;4963264;28;20472;-75
2020/12/15 05:04:26;;;;;;;2.37;0.40;;;;;;;8.43;100.00;100337.47;4945284;28;20466;-76
2020/12/15 05:07:00;;;;;;;1.60;0.20;;;;;;;8.35;100.00;100334.94;4953119;28;20453;-77
2020/12/15 05:10:05;;;;;;;1.50;0.27;;;;;;;8.35;100.00;100332.25;4948436;28;20523;-76
2020/12/15 05:12:51;;;;;;;1.30;0.20;;;;;;;8.16;100.00;100339.09;4886865;29;20517;-76
2020/12/15 05:15:18;;;;;;;1.80;0.50;;;;;;;8.12;100.00;100337.44;4890302;29;20460;-76
2020/12/15 05:17:46;;;;;;;2.67;0.40;;;;;;;8.20;100.00;100342.66;4876345;29;20188;-75
2020/12/15 05:20:28;;;;;;;1.63;0.30;;;;;;;8.38;100.00;100347.69;4870065;29;20512;-76
2020/12/15 05:23:00;;;;;;;1.77;0.43;;;;;;;8.39;100.00;100347.34;4880035;29;21438;-76
2020/12/15 05:25:35;;;;;;;2.03;0.40;;;;;;;8.38;100.00;100345.75;4871241;29;20465;-76
2020/12/15 05:28:12;;;;;;;1.20;0.20;;;;;;;8.43;100.00;100348.19;4868994;29;20449;-73
2020/12/15 05:30:39;;;;;;;1.80;0.30;;;;;;;8.54;100.00;100351.13;4886210;29;20449;-76
2020/12/15 05:33:24;;;;;;;1.93;0.47;;;;;;;8.46;100.00;100357.47;4847673;29;20445;-76
2020/12/15 05:36:21;;;;;;;1.97;0.40;;;;;;;8.34;100.00;100355.66;4881649;29;20535;-76
2020/12/15 05:39:07;;;;;;;1.23;0.13;;;;;;;8.21;100.00;100352.22;4884437;29;20520;-76
2020/12/15 05:41:41;;;;;;;1.67;0.37;;;;;;;8.25;100.00;100346.97;4861681;29;20894;-76
2020/12/15 05:44:12;;;;;;;2.43;0.40;;;;;;;8.34;100.00;100347.59;4882698;29;20944;-74
2020/12/15 05:46:46;;;;;;;2.90;0.50;;;;;;;8.42;100.00;100349.31;4878798;29;20448;-76
2020/12/15 05:49:13;;;;;;;1.83;0.17;;;;;;;8.41;100.00;100346.97;4913200;28;20457;-76
2020/12/15 05:51:40;;;;;;;2.10;0.43;;;;;;;8.31;100.00;100342.91;4948673;28;20524;-76
2020/12/15 05:54:10;;;;;;;1.70;0.37;;;;;;;8.43;100.00;100342.03;4971575;28;20479;-76
2020/12/15 05:56:38;;;;;;;2.03;0.30;;;;;;;8.28;100.00;100349.00;4947815;28;20987;-76
2020/12/15 05:59:21;;;;;;;2.17;0.40;;;;;;;8.42;100.00;100351.22;4971256;28;21176;-76
2020/12/15 06:01:51;;;;;;;2.03;0.30;;;;;;;8.52;100.00;100348.78;4963583;28;20450;-76
2020/12/15 06:04:19;;;;;;;1.80;0.30;;;;;;;8.51;100.00;100351.81;4944495;28;21041;-76
2020/12/15 06:06:46;;;;;;;2.47;0.50;;;;;;;8.54;100.00;100348.44;4948687;28;20437;-74
2020/12/15 06:09:12;;;;;;;1.60;0.30;;;;;;;8.52;100.00;100350.69;4949174;28;20593;-76
2020/12/15 06:11:40;;;;;;;1.43;0.30;;;;;;;8.56;100.00;100340.81;4967595;28;20453;-76
2020/12/15 06:14:10;;;;;;;2.07;0.60;;;;;;;8.58;100.00;100342.03;4962427;28;21076;-76
2020/12/15 06:16:36;;;;;;;2.20;0.40;;;;;;;8.69;100.00;100339.59;4969247;28;20449;-76
2020/12/15 06:19:08;;;;;;;1.90;0.40;;;;;;;8.58;100.00;100347.41;4947489;28;20444;-76
2020/12/15 06:21:56;;;;;;;2.20;0.40;;;;;;;8.71;100.00;100356.13;4962030;28;20437;-77
2020/12/15 06:24:30;;;;;;;2.33;0.43;;;;;;;8.70;100.00;100339.25;4965864;28;20465;-76
2020/12/15 06:27:20;;;;;;;2.80;0.50;;;;;;;8.71;100.00;100338.09;4951673;28;20433;-76
2020/12/15 06:29:50;;;;;;;1.80;0.40;;;;;;;8.69;100.00;100336.91;4887709;29;20446;-76
2020/12/15 06:32:18;;;;;;;1.60;0.30;;;;;;;8.78;100.00;100342.88;4885970;29;20574;-76
2020/12/15 06:34:46;;;;;;;1.70;0.40;;;;;;;8.76;100.00;100326.31;4871113;29;20469;-76
2020/12/15 06:37:15;;;;;;;3.00;0.40;;;;;;;8.71;100.00;100338.09;4892213;29;20443;-75
2020/12/15 06:39:52;;;;;;;1.77;0.20;;;;;;;8.74;100.00;100334.72;4897069;29;20714;-75
2020/12/15 06:42:18;;;;;;;1.70;0.23;;;;;;;8.72;100.00;100334.31;4898812;29;20627;-76
2020/12/15 06:44:43;;;;;;;1.50;0.20;;;;;;;8.73;100.00;100333.16;4898420;29;20471;-76
2020/12/15 06:47:09;;;;;;;1.97;0.40;;;;;;;8.71;100.00;100335.41;4904741;29;20219;-75
2020/12/15 06:49:36;;;;;;;1.47;0.20;;;;;;;8.81;100.00;100329.50;4895107;29;20211;-76
2020/12/15 06:52:07;;;;;;;1.53;0.37;;;;;;;8.71;100.00;100335.41;4901930;29;20197;-77
2020/12/15 06:54:36;;;;;;;1.93;0.40;;;;;;;8.72;100.00;100330.84;4889381;29;20516;-77
2020/12/15 06:57:04;;;;;;;2.30;0.30;;;;;;;8.42;100.00;100335.88;4889683;29;21328;-76
2020/12/15 06:59:38;;;;;;;1.30;0.10;;;;;;;8.48;100.00;100341.78;4886555;29;21327;-75
2020/12/15 07:02:11;;;;;;;2.13;0.50;;;;;;;8.59;100.00;100343.59;4891993;29;20476;-75
2020/12/15 07:04:45;;;;;;;1.60;0.30;;;;;;;8.47;100.00;100345.59;4886944;29;20567;-76
2020/12/15 07:07:31;;;;;;;1.93;0.37;;;;;;;8.53;100.00;100345.00;4929862;28;20536;-75
2020/12/15 07:09:57;;;;;;;2.20;0.40;;;;;;;8.56;100.00;100336.22;4860664;29;20450;-75
2020/12/15 07:12:23;;;;;;;1.47;0.30;;;;;;;8.34;100.00;100333.41;4842937;29;20578;-74
2020/12/15 07:14:51;;;;;;;1.77;0.30;;;;;;;8.35;100.00;100335.72;4840646;29;20916;-75
2020/12/15 07:17:17;;;;;;;1.50;0.20;;;;;;;8.45;100.00;100342.47;4859169;29;20197;-76
2020/12/15 07:19:43;;;;;;;1.57;0.30;;;;;;;8.44;100.00;100349.75;4861452;29;20458;-76
2020/12/15 07:22:09;;;;;;;4.50;0.40;;;;;;;8.27;100.00;100343.94;4841436;29;20485;-75
2020/12/15 07:24:35;;;;;;;1.37;0.27;;;;;;;8.23;100.00;100351.13;4849294;29;21439;-75
2020/12/15 07:27:01;;;;;;;1.63;0.20;;;;;;;8.38;100.00;100366.47;4860410;29;20548;-75
2020/12/15 07:29:28;;;;;;;1.60;0.30;;;;;;;8.36;100.00;100369.50;4872264;29;20189;-76
2020/12/15 07:31:55;;;;;;;1.50;0.20;;;;;;;8.53;100.00;100371.03;4869697;29;20454;-75
2020/12/15 07:34:21;;;;;;;2.07;0.37;;;;;;;8.43;100.00;100377.72;4871590;29;21009;-75
2020/12/15 07:36:49;;;;;;;2.50;0.40;;;;;;;8.38;100.00;100380.63;4864588;29;20916;-76
2020/12/15 07:39:15;;;;;;;3.03;0.40;;;;;;;8.37;100.00;100376.41;4871598;29;20490;-76
2020/12/15 07:41:42;;;;;;;2.37;0.57;;;;;;;8.30;100.00;100367.41;4862794;29;20465;-76
2020/12/15 07:44:09;;;;;;;2.67;0.70;;;;;;;8.35;100.00;100370.63;4867055;29;22165;-75
2020/12/15 07:46:44;;;;;;;2.33;0.30;;;;;;;8.28;100.00;100375.81;4896907;28;20524;-74
2020/12/15 07:49:10;;;;;;;1.83;0.33;;;;;;;8.10;100.00;100374.53;4960486;28;20543;-75
2020/12/15 07:51:59;;;;;;;1.40;0.20;;;;;;;8.29;100.00;100372.00;4964723;28;20572;-76
2020/12/15 07:54:24;;;;;;;2.00;0.60;;;;;;;8.21;100.00;100372.91;4917341;29;20243;-76
2020/12/15 07:56:52;;;;;;;2.00;0.60;;;;;;;8.19;100.00;100367.09;4922418;29;20451;-75
2020/12/15 07:59:18;;;;;;;1.40;0.20;;;;;;;8.27;100.00;100371.56;4921631;29;20411;-76
2020/12/15 08:01:44;;;;;;;2.00;0.60;;;;;;;8.35;100.00;100373.28;4912372;29;20439;-76
2020/12/15 08:04:14;;;;;;;1.60;0.33;;;;;;;8.30;100.00;100380.81;4921099;29;21050;-76
2020/12/15 08:06:44;;;;;;;1.57;0.33;;;;;;;8.32;100.00;100379.38;4930518;29;20286;-75
2020/12/15 08:09:15;;;;;;;1.60;0.30;;;;;;;8.37;100.00;100376.41;4926418;29;20448;-75
2020/12/15 08:11:45;;;;;;;2.77;0.60;;;;;;;8.25;100.00;100384.53;4924627;29;20466;-75
2020/12/15 08:14:13;;;;;;;1.73;0.37;;;;;;;8.31;100.00;100383.16;4907703;29;20987;-74
2020/12/15 08:16:39;;;;;;;1.40;0.20;;;;;;;8.29;100.00;100377.34;4918108;29;20443;-75
2020/12/15 08:19:06;;;;;;;1.70;0.47;;;;;;;8.24;100.00;100366.88;4919237;29;20450;-75
2020/12/15 08:21:41;;;;;;;1.80;0.50;;;;;;;8.34;100.00;100376.31;4920025;29;20451;-76
2020/12/15 08:24:11;;;;;;;1.20;0.20;;;;;;;8.33;100.00;100380.91;4924717;29;20994;-76
2020/12/15 08:26:38;;;;;;;2.20;0.47;;;;;;;8.28;100.00;100375.81;4927150;29;20451;-76
2020/12/15 08:29:13;;;;;;;1.83;0.20;;;;;;;8.41;100.00;100373.81;4924432;29;20487;-76
2020/12/15 08:31:41;;;;;;;2.20;0.33;;;;;;;8.40;100.00;100383.75;4941278;28;20445;-76
2020/12/15 08:34:11;;;;;;;2.37;0.43;;;;;;;8.27;100.00;100374.25;4952215;28;20465;-75
2020/12/15 08:36:41;;;;;;;1.90;0.37;;;;;;;8.28;100.00;100391.91;4972145;28;20457;-76
2020/12/15 08:39:10;;;;;;;2.70;0.50;;;;;;;8.43;100.00;100384.97;4957358;28;20561;-76
2020/12/15 08:41:36;;;;;;;1.80;0.40;;;;;;;8.57;100.00;100388.78;4967311;28;20463;-76
2020/12/15 08:44:02;;;;;;;1.50;0.27;;;;;;;8.42;100.00;100391.47;4967638;28;20492;-76
2020/12/15 08:46:35;;;;;;;1.80;0.33;;;;;;;8.32;100.00;100387.41;4968990;28;20429;-76
2020/12/15 08:49:00;;;;;;;2.37;0.40;;;;;;;8.28;100.00;100380.38;4963625;28;20458;-76
2020/12/15 08:51:27;;;;;;;2.20;0.40;;;;;;;8.27;100.00;100384.97;4951052;28;20449;-76
2020/12/15 08:53:53;;;;;;;2.50;0.50;;;;;;;8.43;100.00;100390.34;4969706;28;20206;-76
2020/12/15 08:56:18;;;;;;;1.90;0.33;;;;;;;8.57;100.00;100388.00;4968955;28;20450;-76
2020/12/15 08:58:44;;;;;;;2.33;0.53;;;;;;;8.23;100.00;100388.69;4946080;28;20209;-76
2020/12/15 09:01:11;;;;;;;2.50;0.30;;;;;;;8.47;100.00;100388.53;4962714;28;20726;-76
2020/12/15 09:03:45;;;;;;;3.03;0.47;;;;;;;8.36;100.00;100380.22;4964831;28;20473;-76
2020/12/15 09:06:11;;;;;;;2.50;0.47;;;;;;;8.37;100.00;100395.19;4963662;28;20454;-76
2020/12/15 09:08:49;;;;;;;2.23;0.63;;;;;;;8.48;100.00;100390.09;4964943;28;20449;-76
2020/12/15 09:11:16;;;;;;;1.90;0.47;;;;;;;8.61;100.00;100389.66;4963383;28;20213;-76
2020/12/15 09:13:56;;;;;;;2.10;0.40;;;;;;;8.55;100.00;100392.94;4967155;28;20461;-76
2020/12/15 09:16:32;;;;;;;2.50;0.50;;;;;;;8.40;100.00;100396.41;4962642;28;20469;-76
2020/12/15 09:19:10;;;;;;;2.30;0.60;;;;;;;8.49;100.00;100386.28;4969878;28;20445;-76
2020/12/15 09:21:35;;;;;;;2.40;0.53;;;;;;;8.50;100.00;100391.28;4948494;28;20448;-75
2020/12/15 09:24:01;;;;;;;1.87;0.60;;;;;;;8.60;100.00;100392.66;4962868;28;20481;-76
2020/12/15 09:26:26;;;;;;;1.87;0.27;;;;;;;8.57;100.00;100394.16;4949803;28;20199;-76
2020/12/15 09:28:52;;;;;;;1.73;0.30;;;;;;;8.38;100.00;100410.16;4950632;28;20190;-74
2020/12/15 09:31:19;;;;;;;2.37;0.53;;;;;;;8.37;100.00;100394.41;4963586;28;20687;-75
2020/12/15 09:33:46;;;;;;;2.13;0.40;;;;;;;8.50;100.00;100399.34;4966466;28;20229;-75
2020/12/15 09:36:15;;;;;;;2.23;0.40;;;;;;;8.68;100.00;100403.22;4949284;28;20943;-74
2020/12/15 09:38:42;;;;;;;1.83;0.40;;;;;;;8.73;100.00;100399.50;4968777;28;20601;-76
2020/12/15 09:41:07;;;;;;;1.87;0.40;;;;;;;8.80;100.00;100399.66;4943438;28;20450;-76
2020/12/15 09:43:33;;;;;;;2.17;0.50;;;;;;;8.76;100.00;100399.59;4969740;28;20838;-76
2020/12/15 09:46:01;;;;;;;2.90;0.60;;;;;;;8.82;100.00;100403.56;4965757;28;20212;-76
2020/12/15 09:48:27;;;;;;;2.40;0.47;;;;;;;8.82;100.00;100406.25;4970710;28;20566;-76
2020/12/15 09:50:53;;;;;;;2.03;0.40;;;;;;;8.72;100.00;100408.69;4968272;28;20482;-76
2020/12/15 09:53:18;;;;;;;2.23;0.57;;;;;;;8.78;100.00;100402.72;4967541;28;20193;-76
2020/12/15 09:55:44;;;;;;;3.10;0.50;;;;;;;8.92;100.00;100416.44;4969817;28;20500;-75
2020/12/15 09:58:09;;;;;;;2.10;0.40;;;;;;;8.83;100.00;100418.53;4952700;28;20226;-76
2020/12/15 10:00:35;;;;;;;1.77;0.40;;;;;;;9.03;100.00;100419.38;4964811;28;20186;-76
2020/12/15 10:03:00;;;;;;;1.83;0.40;;;;;;;9.12;100.00;100424.56;4970041;28;20210;-76
2020/12/15 10:05:26;;;;;;;2.20;0.50;;;;;;;9.05;100.00;100423.28;4968538;28;20216;-75
2020/12/15 10:07:51;;;;;;;2.47;0.50;;;;;;;9.00;100.00;100423.53;4968741;28;20689;-76
2020/12/15 10:10:17;;;;;;;2.70;0.80;;;;;;;8.99;100.00;100408.56;4965892;28;20607;-76
2020/12/15 10:12:43;;;;;;;1.73;0.30;;;;;;;9.03;100.00;100401.38;4966546;28;20183;-77
2020/12/15 10:15:10;;;;;;;1.90;0.60;;;;;;;9.20;100.00;100394.03;4966857;28;20207;-75
2020/12/15 10:17:37;;;;;;;1.60;0.50;;;;;;;9.22;100.00;100395.22;4960283;28;20449;-76
2020/12/15 10:20:04;;;;;;;1.73;0.40;;;;;;;9.22;100.00;100402.50;4967848;28;20465;-76
2020/12/15 10:22:30;;;;;;;2.83;0.67;;;;;;;9.35;100.00;100399.34;4968195;28;20917;-75
2020/12/15 10:24:55;;;;;;;1.50;0.33;;;;;;;9.41;100.00;100389.09;4967310;28;20530;-76
2020/12/15 10:27:21;;;;;;;1.53;0.30;;;;;;;9.24;100.00;100400.25;4968835;28;20659;-76
2020/12/15 10:29:46;;;;;;;1.77;0.33;;;;;;;9.33;100.00;100403.53;4963919;28;20232;-75
2020/12/15 10:32:12;;;;;;;1.70;0.30;;;;;;;9.41;100.00;100403.31;4970454;28;20178;-76
2020/12/15 10:34:37;;;;;;;2.23;0.60;;;;;;;9.35;100.00;100415.47;4949494;28;20227;-76
2020/12/15 10:37:03;;;;;;;2.50;0.53;;;;;;;9.35;100.00;100402.03;4968140;28;20198;-76
2020/12/15 10:39:29;;;;;;;2.13;0.33;;;;;;;9.33;100.00;100408.91;4954325;28;20205;-75
2020/12/15 10:41:54;;;;;;;2.60;0.60;;;;;;;9.21;100.00;100414.41;4953913;28;20310;-76
2020/12/15 10:44:20;;;;;;;1.87;0.30;;;;;;;9.33;100.00;100419.66;4949559;28;20305;-76
2020/12/15 10:46:46;;;;;;;1.87;0.40;;;;;;;9.27;100.00;100415.69;4953609;28;20394;-75
2020/12/15 10:49:14;;;;;;;2.17;0.60;;;;;;;9.30;100.00;100410.38;4964430;28;20185;-75
2020/12/15 10:51:40;;;;;;;2.23;0.50;;;;;;;9.34;100.00;100415.81;4950600;28;20456;-76
2020/12/15 10:54:06;;;;;;;2.10;0.50;;;;;;;9.47;100.00;100409.97;4971738;28;20470;-74
2020/12/15 10:56:31;;;;;;;1.30;0.30;;;;;;;9.48;100.00;100402.69;4971041;28;20217;-75
2020/12/15 10:58:57;;;;;;;1.87;0.30;;;;;;;9.41;100.00;100407.91;4969767;28;21436;-75
2020/12/15 11:01:23;;;;;;;2.33;0.57;;;;;;;9.38;100.00;100419.38;4929329;28;20892;-75
2020/12/15 11:03:49;;;;;;;2.70;0.60;;;;;;;9.46;100.00;100404.94;4971610;28;20220;-75
2020/12/15 11:06:15;;;;;;;2.87;0.50;;;;;;;9.39;100.00;100408.25;4952136;28;20997;-76
2020/12/15 11:08:41;;;;;;;2.70;0.60;;;;;;;9.18;100.00;100409.72;4950967;28;20437;-76
2020/12/15 11:11:06;;;;;;;1.57;0.30;;;;;;;9.45;100.00;100411.44;4968403;28;20186;-75
2020/12/15 11:13:32;;;;;;;2.37;0.40;;;;;;;9.42;100.00;100421.00;4966386;28;20186;-74
2020/12/15 11:15:57;;;;;;;3.60;0.77;;;;;;;9.20;100.00;100418.19;4963295;28;20714;-74
2020/12/15 11:18:22;;;;;;;2.00;0.40;;;;;;;9.36;100.00;100427.00;4965932;28;20273;-76
2020/12/15 11:20:48;;;;;;;2.23;0.60;;;;;;;9.18;100.00;100418.56;4970731;28;20753;-75
2020/12/15 11:23:14;;;;;;;1.87;0.43;;;;;;;9.24;100.00;100424.44;4969649;28;20206;-75
2020/12/15 11:25:40;;;;;;;3.37;0.60;;;;;;;9.35;100.00;100423.53;4964290;28;20206;-76
2020/12/15 11:28:05;;;;;;;2.67;0.60;;;;;;;9.52;100.00;100416.97;4970076;28;21018;-75
2020/12/15 11:30:31;;;;;;;2.73;0.30;;;;;;;9.63;100.00;100415.28;4961269;28;20513;-76
2020/12/15 11:32:56;;;;;;;1.60;0.30;;;;;;;9.67;100.00;100416.13;4967767;28;20186;-76
2020/12/15 11:35:22;;;;;;;1.80;0.30;;;;;;;9.51;100.00;100410.03;4967537;28;20206;-75